Página principal
METAR-TAF:

METAR-TAF

Aeroportos :

Antananarivo, Madagáscar

Aeroporto Internacional de Ivato

latitude: 18-48S, longitude: 047-29E, altura: 1279 m

Observação actual do tempo

O boletim foi feito há 33 minutos, às 14:30 UTC
Vento 9 kt de es-sudeste, variando entre este e sul
Temperatura 24°C
Humidade 44%
Pressão 1018 hPa
Visibilidade 10 km ou mais
Nuvens dispersasa uma altura de 2300 ft, Cumulonimbus.

METAR: FMMI 161430Z 12009KT 100V180 9999 SCT023CB 24/11 Q1018 NOSIG

Hora: 18:03 (15:03 UTC)

Previsão

O boletim foi feito há 4 horas e 3 minutos, às 11:00 UTC
Previsão válida de 16 às 12 UTC a 17 às 18 UTC
Vento 10 kt de sudeste
Visibilidade 10 km ou mais
Nuvens dispersasa uma altura de 1700 ft
Nuvens dispersasa uma altura de 2000 ft

TAF: FMMI 161100Z 1612/1718 14010KT 9999 SCT017 SCT020

Observações e previsões do tempo de mais de 4000 aeroportos (mensagens METAR e TAF).

As estações disponíveis são os pontos amarelos e vermelhos sobre o mapa.

Mova o rato sobre o mapa para ver o nome da estação.

Depois clique no ponto para visualizar as observações e previsões meteorológicas.

Para alterar o mapa : clique nos botões verdes com uma cruz preta para aumentar o zoom; no botão verde com uma pitada de zoom; ou nas setas verdes para mapas adjacentes.


METAR-TAF: